Time;durP1;ratioP1;P1;durP2;ratioP2;P2;SDS_P1;SDS_P2;PMS_P1;PMS_P2;Temp;Humidity;BMP_temperature;BMP_pressure;BME280_temperature;BME280_humidity;BME280_pressure;Samples;Min_cycle;Max_cycle;Signal;HPM_P1;HPM_P2
2020/12/09 00:01:46;;;;;;;159.95;84.00;;;;;;;-0.81;67.21;94489.52;1763504;81;21086;-55
2020/12/09 00:04:16;;;;;;;151.53;81.25;;;;;;;-0.86;67.31;94487.95;1763487;81;21079;-55
2020/12/09 00:06:44;;;;;;;182.85;95.53;;;;;;;-0.83;67.46;94493.16;1763542;81;21099;-56
2020/12/09 00:09:16;;;;;;;176.68;91.63;;;;;;;-0.77;67.40;94494.34;1763568;81;21380;-55
2020/12/09 00:11:45;;;;;;;169.00;93.00;;;;;;;-0.71;66.99;94496.86;1763736;81;21073;-56
2020/12/09 00:14:13;;;;;;;168.97;87.88;;;;;;;-0.75;67.00;94493.39;1763519;81;21058;-56
2020/12/09 00:16:42;;;;;;;188.95;94.15;;;;;;;-0.81;67.05;94488.17;1763444;81;21075;-57
2020/12/09 00:19:10;;;;;;;185.97;90.17;;;;;;;-0.79;67.08;94488.56;1763504;81;21526;-55
2020/12/09 00:21:38;;;;;;;193.85;90.15;;;;;;;-0.76;66.95;94489.90;1763571;81;22087;-56
2020/12/09 00:24:07;;;;;;;148.62;76.00;;;;;;;-0.72;66.77;94494.76;1763584;81;21633;-56
2020/12/09 00:26:36;;;;;;;142.32;74.72;;;;;;;-0.71;66.56;94493.59;1763447;81;21098;-55
2020/12/09 00:29:06;;;;;;;129.32;72.80;;;;;;;-0.82;66.54;94496.05;1763479;81;21079;-56
2020/12/09 00:31:34;;;;;;;140.60;73.30;;;;;;;-0.95;66.75;94505.66;1763432;81;21210;-57
2020/12/09 00:34:03;;;;;;;149.40;79.92;;;;;;;-1.06;67.00;94506.19;1755826;81;21365;-55
2020/12/09 00:36:31;;;;;;;177.12;87.40;;;;;;;-1.20;67.21;94500.72;1755149;81;21119;-55
2020/12/09 00:39:00;;;;;;;144.53;79.32;;;;;;;-1.31;67.67;94493.16;1755141;81;21119;-55
2020/12/09 00:41:28;;;;;;;168.28;79.62;;;;;;;-1.30;67.78;94498.75;1755128;81;21106;-56
2020/12/09 00:43:57;;;;;;;229.25;101.40;;;;;;;-1.36;67.81;94500.28;1755115;81;21067;-55
2020/12/09 00:46:26;;;;;;;195.97;92.97;;;;;;;-1.53;67.90;94498.25;1755129;81;21369;-55
2020/12/09 00:48:56;;;;;;;233.93;106.58;;;;;;;-1.69;68.18;94503.16;1755157;81;21103;-55
2020/12/09 00:51:26;;;;;;;258.05;115.40;;;;;;;-1.89;68.47;94514.55;1755248;81;21468;-55
2020/12/09 00:53:56;;;;;;;251.10;115.88;;;;;;;-1.97;68.89;94510.27;1755213;81;21516;-56
2020/12/09 00:56:34;;;;;;;246.97;116.17;;;;;;;-1.85;69.15;94509.95;1873649;76;22773;-56
2020/12/09 00:59:04;;;;;;;238.72;109.15;;;;;;;-1.78;69.51;94513.48;1840902;78;20883;-56
2020/12/09 01:01:34;;;;;;;241.38;108.83;;;;;;;-1.54;69.44;94511.54;1841696;78;22089;-55
2020/12/09 01:04:06;;;;;;;223.45;102.90;;;;;;;-1.38;69.07;94506.03;1841561;78;21510;-55
2020/12/09 01:06:35;;;;;;;213.65;103.75;;;;;;;-1.24;69.15;94499.94;1841694;77;21049;-55
2020/12/09 01:09:06;;;;;;;186.25;93.33;;;;;;;-1.02;68.96;94492.13;1841532;78;20939;-56
2020/12/09 01:11:35;;;;;;;212.12;98.58;;;;;;;-0.82;68.59;94486.59;1841788;77;21053;-55
2020/12/09 01:14:04;;;;;;;259.35;114.70;;;;;;;-0.62;68.12;94499.40;1841568;78;21361;-55
2020/12/09 01:16:32;;;;;;;238.68;108.72;;;;;;;-0.65;67.34;94491.28;1841566;77;21490;-55
2020/12/09 01:19:01;;;;;;;271.13;122.17;;;;;;;-0.74;67.13;94494.93;1841660;78;21472;-55
2020/12/09 01:21:30;;;;;;;268.90;123.95;;;;;;;-0.80;67.47;94494.52;1841617;78;21566;-55
2020/12/09 01:23:59;;;;;;;306.30;132.97;;;;;;;-0.69;67.63;94486.45;1841555;78;21069;-55
2020/12/09 01:26:27;;;;;;;252.72;120.25;;;;;;;-0.57;67.48;94488.80;1837237;77;21379;-55
2020/12/09 01:28:55;;;;;;;195.95;95.00;;;;;;;-0.55;67.15;94481.84;1808564;79;21509;-55
2020/12/09 01:31:24;;;;;;;203.52;98.27;;;;;;;-0.63;67.30;94494.39;1808600;79;21494;-56
2020/12/09 01:33:52;;;;;;;162.18;81.12;;;;;;;-0.72;67.74;94483.17;1808574;78;21073;-56
2020/12/09 01:36:24;;;;;;;175.78;83.95;;;;;;;-0.62;68.13;94486.48;1808473;79;21046;-55
2020/12/09 01:38:52;;;;;;;131.65;70.20;;;;;;;-0.51;67.84;94481.86;1808373;79;21200;-55
2020/12/09 01:41:25;;;;;;;136.52;64.50;;;;;;;-0.42;68.16;94482.28;1808573;79;21485;-55
2020/12/09 01:43:53;;;;;;;130.45;69.00;;;;;;;-0.30;67.84;94480.53;1808616;79;21050;-55
2020/12/09 01:46:29;;;;;;;126.53;65.95;;;;;;;-0.27;67.71;94477.06;1808563;79;21493;-54
2020/12/09 01:48:58;;;;;;;121.95;64.27;;;;;;;-0.31;67.71;94465.48;1808546;79;21117;-55
2020/12/09 01:51:28;;;;;;;129.10;66.35;;;;;;;-0.30;67.61;94464.33;1808581;79;21201;-55
2020/12/09 01:53:59;;;;;;;122.45;64.62;;;;;;;-0.32;68.00;94463.94;1808561;79;21613;-55
2020/12/09 01:56:27;;;;;;;122.13;62.85;;;;;;;-0.21;68.06;94468.78;1801756;78;21132;-55
2020/12/09 01:58:56;;;;;;;109.10;55.25;;;;;;;-0.07;67.85;94465.50;1800520;79;21053;-55
2020/12/09 02:01:24;;;;;;;117.57;60.98;;;;;;;-0.01;67.21;94464.73;1800580;79;21088;-56
2020/12/09 02:03:53;;;;;;;118.55;60.17;;;;;;;-0.13;67.09;94463.00;1800574;79;21418;-55
2020/12/09 02:06:21;;;;;;;87.67;46.83;;;;;;;-0.25;67.45;94477.48;1800285;79;21057;-55
2020/12/09 02:08:49;;;;;;;96.90;51.95;;;;;;;-0.23;67.53;94478.62;1800073;78;21523;-55
2020/12/09 02:11:18;;;;;;;100.97;56.40;;;;;;;-0.27;67.63;94475.71;1799931;79;21109;-56
2020/12/09 02:13:47;;;;;;;105.00;55.45;;;;;;;-0.35;67.82;94474.17;1800034;79;21590;-55
2020/12/09 02:16:18;;;;;;;107.20;56.28;;;;;;;-0.34;67.89;94464.91;1800047;79;22036;-55
2020/12/09 02:18:46;;;;;;;109.42;57.98;;;;;;;-0.39;68.00;94466.64;1799961;79;21065;-55
2020/12/09 02:21:17;;;;;;;96.08;53.38;;;;;;;-0.34;68.31;94471.66;1799976;79;21060;-55
2020/12/09 02:23:45;;;;;;;108.27;58.55;;;;;;;-0.18;68.01;94466.09;1799891;79;21080;-55
2020/12/09 02:26:13;;;;;;;111.05;53.95;;;;;;;-0.16;67.85;94462.42;1799963;78;21046;-56
2020/12/09 02:28:42;;;;;;;112.55;56.00;;;;;;;-0.11;67.82;94466.65;1800091;78;22321;-55
2020/12/09 02:31:10;;;;;;;86.85;48.65;;;;;;;-0.14;67.70;94467.42;1800019;79;21127;-55
2020/12/09 02:33:38;;;;;;;105.00;53.42;;;;;;;-0.15;67.73;94464.53;1800046;79;21584;-55
2020/12/09 02:36:07;;;;;;;94.05;51.35;;;;;;;-0.18;67.89;94465.30;1799922;79;21136;-56
2020/12/09 02:38:36;;;;;;;95.65;54.33;;;;;;;-0.18;67.53;94465.30;1800047;79;21465;-56
2020/12/09 02:41:05;;;;;;;108.70;55.23;;;;;;;-0.31;67.96;94468.19;1799944;79;21370;-54
2020/12/09 02:43:33;;;;;;;103.02;51.45;;;;;;;-0.33;67.96;94465.09;1799871;79;21092;-54
2020/12/09 02:46:03;;;;;;;102.65;56.48;;;;;;;-0.36;68.09;94469.92;1799956;79;21045;-55
2020/12/09 02:48:32;;;;;;;101.15;51.85;;;;;;;-0.40;67.99;94470.50;1800029;79;21496;-57
2020/12/09 02:51:00;;;;;;;107.32;57.33;;;;;;;-0.49;68.12;94465.47;1799938;78;21608;-56
2020/12/09 02:53:29;;;;;;;93.55;51.73;;;;;;;-0.58;68.42;94468.35;1799929;79;23546;-55
2020/12/09 02:55:57;;;;;;;92.62;51.70;;;;;;;-0.60;68.45;94472.78;1803572;79;21121;-56
2020/12/09 02:58:26;;;;;;;99.92;51.33;;;;;;;-0.60;68.61;94462.56;1807880;79;21085;-55
2020/12/09 03:00:55;;;;;;;89.75;48.80;;;;;;;-0.60;68.55;94463.32;1807872;79;21053;-55
2020/12/09 03:03:23;;;;;;;89.47;49.70;;;;;;;-0.60;68.45;94463.91;1807943;78;21081;-54
2020/12/09 03:05:54;;;;;;;89.77;47.88;;;;;;;-0.57;68.72;94465.84;1807936;79;22255;-54
2020/12/09 03:08:22;;;;;;;90.62;50.60;;;;;;;-0.52;68.38;94466.81;1807856;79;20958;-55
2020/12/09 03:10:50;;;;;;;94.05;50.80;;;;;;;-0.54;68.34;94460.45;1807879;78;21522;-55
2020/12/09 03:13:19;;;;;;;94.97;50.90;;;;;;;-0.49;68.44;94467.39;1807858;79;21568;-55
2020/12/09 03:15:47;;;;;;;100.67;47.85;;;;;;;-0.44;67.98;94471.09;1807933;79;21580;-56
2020/12/09 03:18:17;;;;;;;85.75;46.65;;;;;;;-0.48;67.80;94471.07;1807782;79;21376;-56
2020/12/09 03:20:46;;;;;;;94.07;48.68;;;;;;;-0.51;67.79;94472.41;1807796;79;21061;-55
2020/12/09 03:23:15;;;;;;;80.92;45.45;;;;;;;-0.57;67.64;94470.66;1807841;78;21045;-56
2020/12/09 03:25:44;;;;;;;83.95;47.83;;;;;;;-0.67;67.83;94469.28;1807820;79;21065;-56
2020/12/09 03:28:13;;;;;;;86.53;48.08;;;;;;;-0.72;68.18;94475.86;1807848;78;21506;-54
2020/12/09 03:30:41;;;;;;;96.30;51.70;;;;;;;-0.64;68.38;94472.00;1807927;79;22262;-55
2020/12/09 03:33:10;;;;;;;87.65;50.83;;;;;;;-0.57;67.83;94475.30;1807803;79;20990;-55
2020/12/09 03:35:39;;;;;;;87.12;46.75;;;;;;;-0.61;67.77;94473.94;1807806;79;21561;-64
2020/12/09 03:38:09;;;;;;;85.42;49.13;;;;;;;-0.61;67.64;94479.92;1807853;79;21548;-55
2020/12/09 03:40:37;;;;;;;85.75;48.02;;;;;;;-0.64;67.57;94482.80;1807971;79;21546;-54
2020/12/09 03:43:09;;;;;;;89.00;51.68;;;;;;;-0.70;67.34;94472.75;1807875;79;21524;-54
2020/12/09 03:45:38;;;;;;;112.62;60.12;;;;;;;-0.79;67.62;94477.76;1807788;79;21124;-55
2020/12/09 03:48:07;;;;;;;106.07;57.80;;;;;;;-0.80;67.60;94468.11;1807801;79;21648;-55
2020/12/09 03:50:35;;;;;;;105.92;58.80;;;;;;;-0.80;67.56;94480.27;1807844;79;21058;-56
2020/12/09 03:53:04;;;;;;;109.72;59.75;;;;;;;-0.83;67.60;94476.39;1807862;79;21065;-56
2020/12/09 03:55:32;;;;;;;106.03;56.13;;;;;;;-0.78;67.50;94475.25;1808597;79;21612;-55
2020/12/09 03:58:02;;;;;;;101.20;54.33;;;;;;;-0.74;67.24;94474.68;1813487;79;21136;-56
2020/12/09 04:00:30;;;;;;;101.47;55.38;;;;;;;-0.70;67.06;94469.48;1813492;79;21585;-55
2020/12/09 04:02:58;;;;;;;86.15;48.78;;;;;;;-0.69;66.85;94461.58;1813513;79;21561;-56
2020/12/09 04:05:27;;;;;;;100.33;54.50;;;;;;;-0.66;66.76;94462.73;1813620;79;21581;-55
2020/12/09 04:07:56;;;;;;;116.30;60.33;;;;;;;-0.62;66.59;94459.48;1813470;79;21343;-55
2020/12/09 04:10:25;;;;;;;123.15;67.50;;;;;;;-0.58;66.53;94465.66;1813474;79;21081;-55
2020/12/09 04:12:53;;;;;;;96.32;54.05;;;;;;;-0.54;66.30;94470.48;1813510;79;21077;-56
2020/12/09 04:15:22;;;;;;;93.15;53.45;;;;;;;-0.69;66.43;94472.38;1813459;79;21070;-55
2020/12/09 04:17:51;;;;;;;135.68;73.10;;;;;;;-0.82;66.92;94468.48;1813555;79;21545;-55
2020/12/09 04:20:19;;;;;;;121.13;62.45;;;;;;;-0.80;67.24;94468.11;1813506;79;22523;-55
2020/12/09 04:22:47;;;;;;;108.47;57.00;;;;;;;-0.71;67.43;94461.20;1813514;79;21533;-56
2020/12/09 04:25:16;;;;;;;112.70;63.05;;;;;;;-0.51;67.05;94460.25;1813510;79;21053;-55
2020/12/09 04:27:44;;;;;;;116.75;61.73;;;;;;;-0.36;66.55;94461.25;1813482;77;21514;-56
2020/12/09 04:30:12;;;;;;;96.12;55.10;;;;;;;-0.23;66.21;94461.64;1813626;78;21465;-56
2020/12/09 04:32:40;;;;;;;108.80;61.10;;;;;;;-0.21;65.64;94467.44;1813500;79;21428;-55
2020/12/09 04:35:09;;;;;;;128.68;64.15;;;;;;;-0.38;65.81;94468.19;1813462;78;21550;-56
2020/12/09 04:37:38;;;;;;;134.63;67.25;;;;;;;-0.43;66.28;94473.98;1813487;79;21005;-56
2020/12/09 04:40:07;;;;;;;131.40;60.80;;;;;;;-0.38;66.24;94462.78;1813445;78;21161;-55
2020/12/09 04:42:35;;;;;;;137.95;68.70;;;;;;;-0.42;66.22;94472.82;1813590;79;21486;-55
2020/12/09 04:45:04;;;;;;;136.18;68.40;;;;;;;-0.57;66.35;94475.30;1813600;79;22251;-56
2020/12/09 04:47:43;;;;;;;106.20;55.00;;;;;;;-0.63;66.63;94474.14;1813425;78;21061;-57
2020/12/09 04:50:13;;;;;;;107.87;56.95;;;;;;;-0.67;66.64;94471.98;1813536;79;21479;-58
2020/12/09 04:52:48;;;;;;;113.03;58.70;;;;;;;-0.80;67.19;94473.52;1813586;79;21502;-58
2020/12/09 04:55:17;;;;;;;114.55;60.50;;;;;;;-0.71;67.12;94473.91;1813495;78;21196;-56
2020/12/09 04:58:18;;;;;;;120.30;61.83;;;;;;;-0.67;67.31;94474.69;1808027;79;21336;-55
2020/12/09 05:00:48;;;;;;;139.92;71.28;;;;;;;-0.70;67.11;94481.64;1807757;79;21487;-57
2020/12/09 05:03:18;;;;;;;120.72;58.20;;;;;;;-0.88;67.57;94485.43;1807783;79;21136;-56
2020/12/09 05:05:47;;;;;;;136.03;69.15;;;;;;;-0.93;67.86;94484.46;1807730;79;21160;-56
2020/12/09 05:08:21;;;;;;;130.57;70.17;;;;;;;-1.03;68.16;94478.44;1807787;79;21171;-56
2020/12/09 05:10:52;;;;;;;135.82;66.37;;;;;;;-1.11;68.43;94474.17;1807766;79;21150;-58
2020/12/09 05:13:23;;;;;;;167.90;80.85;;;;;;;-1.12;68.82;94481.48;1807791;79;21101;-58
2020/12/09 05:15:54;;;;;;;163.75;79.35;;;;;;;-0.96;68.88;94483.88;1807734;79;21045;-55
2020/12/09 05:18:39;;;;;;;145.17;75.90;;;;;;;-0.88;68.33;94482.17;1807791;79;21062;-56
2020/12/09 05:21:13;;;;;;;165.40;80.28;;;;;;;-0.89;68.48;94475.79;1807781;79;21116;-56
2020/12/09 05:23:59;;;;;;;173.43;81.78;;;;;;;-0.92;68.42;94486.76;1807842;79;22473;-56
2020/12/09 05:26:29;;;;;;;174.87;78.40;;;;;;;-0.86;68.61;94480.42;1807679;78;21160;-56
2020/12/09 05:29:13;;;;;;;145.47;73.25;;;;;;;-0.72;68.32;94473.16;1807852;79;21148;-56
2020/12/09 05:31:44;;;;;;;145.68;77.40;;;;;;;-0.78;67.99;94471.20;1807780;78;21057;-57
2020/12/09 05:34:33;;;;;;;164.93;81.65;;;;;;;-0.99;68.19;94472.49;1807801;79;21462;-56
2020/12/09 05:37:06;;;;;;;153.45;75.87;;;;;;;-1.10;68.59;94476.47;1807748;79;21352;-56
2020/12/09 05:39:34;;;;;;;163.70;81.30;;;;;;;-1.04;68.76;94476.89;1808064;79;21078;-59
2020/12/09 05:42:16;;;;;;;219.68;91.47;;;;;;;-0.98;68.39;94479.44;1807779;79;21186;-56
2020/12/09 05:44:45;;;;;;;226.37;97.78;;;;;;;-1.05;68.24;94480.73;1808056;79;21077;-56
2020/12/09 05:47:14;;;;;;;258.52;116.12;;;;;;;-1.27;68.21;94466.41;1807928;79;21049;-56
2020/12/09 05:49:42;;;;;;;236.52;103.80;;;;;;;-1.42;68.70;94478.28;1807975;79;23498;-57
2020/12/09 05:52:17;;;;;;;176.25;79.67;;;;;;;-1.51;68.84;94474.38;1807896;78;21198;-58
2020/12/09 05:54:51;;;;;;;198.57;86.67;;;;;;;-1.64;69.15;94480.66;1780565;79;21068;-57
2020/12/09 05:57:25;;;;;;;231.72;97.35;;;;;;;-1.72;69.54;94484.45;1811275;79;21144;-58
2020/12/09 05:59:54;;;;;;;216.80;95.35;;;;;;;-1.71;69.89;94481.20;1813611;79;21134;-55
2020/12/09 06:02:28;;;;;;;213.65;95.45;;;;;;;-1.77;69.84;94484.81;1813575;79;22163;-57
2020/12/09 06:05:01;;;;;;;177.43;81.15;;;;;;;-1.81;70.09;94485.17;1813113;79;21266;-56
2020/12/09 06:07:31;;;;;;;139.62;66.07;;;;;;;-1.86;70.28;94487.64;1813803;79;21113;-56
2020/12/09 06:10:16;;;;;;;155.18;74.53;;;;;;;-1.95;70.67;94491.21;1813691;78;21112;-56
2020/12/09 06:13:02;;;;;;;151.57;77.90;;;;;;;-2.09;71.09;94487.09;1813700;79;21446;-56
2020/12/09 06:15:33;;;;;;;131.93;62.40;;;;;;;-2.13;71.18;94497.05;1813627;78;21529;-57
2020/12/09 06:18:18;;;;;;;141.07;65.67;;;;;;;-2.11;71.54;94500.13;1813769;78;21069;-55
2020/12/09 06:20:46;;;;;;;90.20;43.70;;;;;;;-2.10;71.27;94494.19;1813596;79;21057;-56
2020/12/09 06:23:18;;;;;;;155.52;76.47;;;;;;;-2.12;71.53;94492.44;1813652;78;21470;-59
2020/12/09 06:25:46;;;;;;;156.72;72.10;;;;;;;-2.11;71.78;94497.44;1813543;78;21152;-56
2020/12/09 06:28:17;;;;;;;165.90;77.27;;;;;;;-1.98;71.60;94499.30;1813560;77;21481;-58
2020/12/09 06:30:46;;;;;;;154.18;69.30;;;;;;;-1.83;71.66;94493.62;1819180;77;21186;-57
2020/12/09 06:33:36;;;;;;;163.95;81.57;;;;;;;-1.64;71.23;94493.36;1790381;77;21493;-57
2020/12/09 06:36:19;;;;;;;122.65;54.45;;;;;;;-1.66;70.53;94501.05;1801376;77;21050;-56
2020/12/09 06:39:16;;;;;;;168.50;83.58;;;;;;;-1.84;70.62;94491.28;1750699;80;21113;-55
2020/12/09 06:41:56;;;;;;;135.45;66.72;;;;;;;-1.94;71.13;94504.89;1764268;81;22124;-56
2020/12/09 06:44:29;;;;;;;194.37;87.05;;;;;;;-1.83;71.28;94499.01;1744414;81;21082;-57
2020/12/09 06:46:58;;;;;;;155.90;75.05;;;;;;;-1.83;70.99;94500.36;1751248;81;21102;-55
2020/12/09 06:49:36;;;;;;;174.75;78.83;;;;;;;-1.82;71.36;94492.47;1732872;82;21208;-57
2020/12/09 06:52:16;;;;;;;196.90;91.50;;;;;;;-1.85;71.00;94504.56;1764635;80;21079;-56
2020/12/09 06:54:47;;;;;;;135.72;61.00;;;;;;;-1.92;71.26;94505.87;1764749;80;21215;-59
2020/12/09 06:57:18;;;;;;;179.00;86.72;;;;;;;-1.85;71.36;94508.05;1773241;80;21643;-58
2020/12/09 06:59:50;;;;;;;147.40;69.42;;;;;;;-1.90;71.13;94508.41;1794565;80;21179;-57
2020/12/09 07:02:27;;;;;;;157.50;71.12;;;;;;;-2.01;71.15;94504.84;1794722;80;21166;-58
2020/12/09 07:05:01;;;;;;;192.32;84.28;;;;;;;-2.17;71.60;94504.33;1794623;80;21252;-60
2020/12/09 07:07:38;;;;;;;199.93;91.95;;;;;;;-2.25;71.97;94505.98;1794299;80;21711;-60
2020/12/09 07:10:24;;;;;;;195.60;89.32;;;;;;;-2.28;72.23;94497.30;1794281;80;21199;-57
2020/12/09 07:13:07;;;;;;;186.25;84.72;;;;;;;-2.23;72.65;94489.66;1782251;79;21164;-58
2020/12/09 07:15:39;;;;;;;215.30;95.47;;;;;;;-2.11;72.36;94488.59;1761740;80;21239;-57
2020/12/09 07:18:09;;;;;;;191.20;85.80;;;;;;;-2.09;72.19;94489.78;1763196;80;21180;-61
2020/12/09 07:20:41;;;;;;;188.62;85.65;;;;;;;-1.98;72.13;94483.88;1746736;81;21364;-58
2020/12/09 07:23:09;;;;;;;204.10;93.60;;;;;;;-1.98;72.00;94485.23;1762915;80;21236;-57
2020/12/09 07:25:38;;;;;;;204.40;95.77;;;;;;;-1.97;72.17;94485.42;1763032;81;21196;-60
2020/12/09 07:28:11;;;;;;;216.88;101.87;;;;;;;-1.86;72.25;94484.16;1762762;80;21701;-61
2020/12/09 07:30:40;;;;;;;216.55;103.30;;;;;;;-1.74;72.31;94483.27;1735146;81;21109;-58
2020/12/09 07:33:09;;;;;;;253.20;111.72;;;;;;;-1.58;71.67;94486.45;1762958;80;22566;-64
2020/12/09 07:35:39;;;;;;;278.27;128.78;;;;;;;-1.51;71.33;94485.16;1756618;80;21591;-59
2020/12/09 07:38:09;;;;;;;172.20;80.55;;;;;;;-1.47;71.16;94488.64;1763092;80;21544;-57
2020/12/09 07:40:37;;;;;;;216.02;96.47;;;;;;;-1.40;71.17;94487.32;1762776;80;21666;-61
2020/12/09 07:43:12;;;;;;;266.75;126.33;;;;;;;-1.35;71.02;94488.33;1759936;80;21099;-57
2020/12/09 07:45:43;;;;;;;224.52;104.70;;;;;;;-1.29;70.80;94489.52;1756259;80;21396;-59
2020/12/09 07:48:19;;;;;;;203.60;99.37;;;;;;;-1.17;70.47;94494.59;1786801;80;21149;-60
2020/12/09 07:50:52;;;;;;;179.35;84.70;;;;;;;-1.03;70.34;94498.67;1757148;80;21618;-58
2020/12/09 07:53:20;;;;;;;190.45;90.17;;;;;;;-0.98;69.77;94484.24;1785930;80;21655;-61
2020/12/09 07:55:50;;;;;;;177.55;83.03;;;;;;;-1.00;69.55;94487.90;1738930;80;21220;-59
2020/12/09 07:58:19;;;;;;;207.98;95.57;;;;;;;-1.07;69.43;94489.80;1746770;80;21413;-56
2020/12/09 08:03:39;;;;;;;247.95;116.82;;;;;;;-1.07;69.60;94481.70;1871834;75;22317;-60
2020/12/09 08:06:10;;;;;;;236.40;113.35;;;;;;;-1.15;69.55;94484.19;1806755;78;21688;-60
2020/12/09 08:08:44;;;;;;;219.13;107.45;;;;;;;-1.11;69.95;94489.02;1811395;78;21204;-60
2020/12/09 08:11:14;;;;;;;243.95;109.85;;;;;;;-0.93;70.08;94485.80;1764887;78;21211;-58
2020/12/09 08:13:48;;;;;;;186.67;89.05;;;;;;;-0.73;69.53;94489.73;1808990;78;21145;-61
2020/12/09 08:16:34;;;;;;;208.43;101.07;;;;;;;-0.51;69.12;94487.27;1759898;79;26402;-57
2020/12/09 08:19:27;;;;;;;208.35;97.75;;;;;;;-0.39;68.99;94489.61;1696256;83;21213;-60
2020/12/09 08:22:13;;;;;;;198.85;98.45;;;;;;;-0.21;68.47;94485.00;1662264;85;21590;-58
2020/12/09 08:25:16;;;;;;;189.00;95.28;;;;;;;0.00;67.75;94473.03;1819060;77;24382;-58
2020/12/09 08:27:48;;;;;;;188.35;100.30;;;;;;;0.01;67.53;94475.92;1812080;78;21592;-58
2020/12/09 08:30:23;;;;;;;193.17;96.87;;;;;;;0.08;67.14;94471.09;1789989;79;21395;-57
2020/12/09 08:33:24;;;;;;;173.43;90.30;;;;;;;0.14;66.70;94466.27;1815946;78;21136;-60
2020/12/09 08:35:58;;;;;;;159.05;82.67;;;;;;;0.14;66.15;94468.19;1820509;78;21190;-64
2020/12/09 08:38:43;;;;;;;173.53;87.72;;;;;;;-0.03;66.07;94468.97;1822628;78;21102;-58
2020/12/09 08:41:29;;;;;;;178.85;95.03;;;;;;;-0.01;66.38;94468.00;1803291;78;21217;-58
2020/12/09 08:44:02;;;;;;;228.18;118.28;;;;;;;0.15;66.01;94472.44;1791246;79;21220;-58
2020/12/09 08:46:31;;;;;;;231.60;115.95;;;;;;;0.27;65.83;94471.48;1783291;79;21166;-58
2020/12/09 08:48:59;;;;;;;199.32;104.97;;;;;;;0.45;65.46;94472.20;1788449;78;21177;-59
2020/12/09 08:51:31;;;;;;;229.20;121.10;;;;;;;0.56;65.16;94470.84;1816576;78;21134;-60
2020/12/09 08:54:00;;;;;;;190.97;103.78;;;;;;;0.65;65.17;94468.49;1827433;78;21603;-59
2020/12/09 08:56:31;;;;;;;176.93;99.62;;;;;;;0.87;65.09;94463.98;1827158;78;21200;-59
2020/12/09 08:58:59;;;;;;;131.65;72.40;;;;;;;1.13;64.59;94460.77;1826630;78;21276;-58
2020/12/09 09:01:28;;;;;;;157.27;89.20;;;;;;;1.35;63.63;94450.01;1793671;78;21162;-62
2020/12/09 09:03:59;;;;;;;161.28;92.75;;;;;;;1.36;63.21;94452.91;1786978;79;21122;-59
2020/12/09 09:06:27;;;;;;;251.67;130.80;;;;;;;1.38;62.82;94454.66;1766645;79;21166;-62
2020/12/09 09:08:56;;;;;;;168.30;94.50;;;;;;;1.36;62.87;94444.78;1783369;79;22286;-59
2020/12/09 09:11:26;;;;;;;162.27;93.50;;;;;;;1.55;62.96;94445.66;1781650;79;21128;-57
2020/12/09 09:13:55;;;;;;;186.73;105.45;;;;;;;1.79;62.81;94442.75;1787822;79;21636;-58
2020/12/09 09:16:25;;;;;;;165.62;97.70;;;;;;;2.09;62.17;94436.70;1786529;79;21639;-63
2020/12/09 09:18:55;;;;;;;128.18;76.75;;;;;;;2.37;61.98;94435.11;1794620;79;21639;-61
2020/12/09 09:21:33;;;;;;;139.40;78.80;;;;;;;2.66;61.32;94435.77;1794361;78;21408;-58
2020/12/09 09:24:28;;;;;;;127.67;68.65;;;;;;;2.81;60.77;94432.31;1785757;80;27371;-61
2020/12/09 09:27:00;;;;;;;147.02;85.92;;;;;;;2.81;60.52;94428.23;1733813;81;21021;-60
2020/12/09 09:29:34;;;;;;;141.43;82.17;;;;;;;2.85;60.33;94422.20;1761724;81;21364;-60
2020/12/09 09:32:08;;;;;;;154.85;82.55;;;;;;;3.07;59.76;94426.20;1731720;81;21150;-59
2020/12/09 09:34:45;;;;;;;157.00;87.55;;;;;;;3.28;59.19;94425.92;1765252;80;21154;-58
2020/12/09 09:37:26;;;;;;;158.80;87.25;;;;;;;3.28;58.56;94421.24;1765226;80;21186;-60
2020/12/09 09:39:57;;;;;;;151.50;83.97;;;;;;;3.11;58.51;94418.19;1734467;81;21717;-61
2020/12/09 09:42:36;;;;;;;180.05;101.00;;;;;;;2.93;59.15;94418.21;1764792;80;21371;-63
2020/12/09 09:45:07;;;;;;;149.47;80.55;;;;;;;2.87;59.25;94417.13;1764923;81;21142;-60
2020/12/09 09:47:40;;;;;;;132.97;70.67;;;;;;;3.05;59.63;94409.53;1765088;81;21506;-58
2020/12/09 09:50:14;;;;;;;151.32;86.97;;;;;;;3.30;59.24;94408.04;1765001;80;21185;-59
2020/12/09 09:52:42;;;;;;;121.62;67.80;;;;;;;3.44;58.68;94403.75;1759854;81;21143;-59
2020/12/09 09:55:12;;;;;;;157.37;86.05;;;;;;;3.56;58.48;94399.90;1755946;81;21456;-60
2020/12/09 09:57:43;;;;;;;132.55;72.95;;;;;;;3.70;58.19;94396.19;1756254;81;21198;-58
2020/12/09 10:00:11;;;;;;;140.07;77.30;;;;;;;4.02;57.55;94388.30;1755217;81;21202;-56
2020/12/09 10:02:40;;;;;;;120.82;69.55;;;;;;;4.32;56.71;94388.95;1752106;81;21155;-60
2020/12/09 10:05:11;;;;;;;112.68;66.17;;;;;;;4.65;55.68;94389.31;1735865;81;21045;-58
2020/12/09 10:07:43;;;;;;;110.25;65.28;;;;;;;4.89;55.23;94383.19;1704438;82;22245;-70
2020/12/09 10:10:15;;;;;;;118.40;74.00;;;;;;;5.07;54.65;94380.30;1735489;82;21131;-63
2020/12/09 10:12:45;;;;;;;98.12;57.65;;;;;;;5.23;54.54;94370.03;1741497;81;21170;-64
2020/12/09 10:15:15;;;;;;;97.85;56.33;;;;;;;5.42;54.30;94370.77;1756258;81;21213;-59
2020/12/09 10:17:45;;;;;;;100.62;65.83;;;;;;;5.63;53.81;94370.89;1761357;80;21159;-60
2020/12/09 10:20:17;;;;;;;94.47;60.88;;;;;;;5.82;53.17;94370.84;1781780;80;21202;-59
2020/12/09 10:22:46;;;;;;;87.72;54.05;;;;;;;6.01;52.80;94371.98;1758130;80;21091;-59
2020/12/09 10:25:16;;;;;;;95.77;57.48;;;;;;;6.07;52.67;94364.80;1742831;82;21238;-61
2020/12/09 10:27:48;;;;;;;82.67;50.63;;;;;;;6.17;52.52;94350.12;1757607;81;21146;-61
2020/12/09 10:30:18;;;;;;;85.90;53.95;;;;;;;6.23;52.20;94349.19;1764922;81;21397;-59
2020/12/09 10:32:48;;;;;;;157.22;91.08;;;;;;;6.24;51.64;94347.20;1764754;81;21403;-59
2020/12/09 10:35:18;;;;;;;118.10;62.45;;;;;;;6.16;51.88;94354.80;1764873;81;21372;-61
2020/12/09 10:37:47;;;;;;;86.65;54.38;;;;;;;6.16;52.10;94349.34;1762488;81;21527;-60
2020/12/09 10:40:15;;;;;;;82.60;52.67;;;;;;;6.41;51.88;94347.36;1737257;81;21654;-59
2020/12/09 10:42:48;;;;;;;84.03;53.40;;;;;;;6.63;51.39;94344.22;1765112;80;21919;-66
2020/12/09 10:45:20;;;;;;;63.85;41.98;;;;;;;6.74;51.02;94348.20;1758638;81;21857;-57
2020/12/09 10:47:52;;;;;;;71.05;43.42;;;;;;;6.98;51.03;94341.30;1731841;82;21247;-59
2020/12/09 10:50:39;;;;;;;71.75;43.58;;;;;;;7.36;50.60;94337.42;1792453;79;22506;-58
2020/12/09 10:53:08;;;;;;;60.33;39.13;;;;;;;7.56;49.93;94336.61;1783159;80;21638;-65
2020/12/09 10:55:40;;;;;;;73.60;45.92;;;;;;;7.49;49.61;94335.47;1751297;80;21429;-60
2020/12/09 10:58:17;;;;;;;75.28;48.38;;;;;;;7.55;49.81;94330.22;1782938;80;21808;-57
2020/12/09 11:00:55;;;;;;;77.55;49.90;;;;;;;7.66;49.34;94328.69;1730622;80;21151;-59
2020/12/09 11:03:24;;;;;;;67.17;41.00;;;;;;;7.70;49.09;94323.11;1752042;80;21134;-60
2020/12/09 11:05:55;;;;;;;65.62;40.78;;;;;;;7.64;48.49;94332.47;1783591;80;21206;-58
2020/12/09 11:08:26;;;;;;;55.52;34.90;;;;;;;7.50;49.04;94321.95;1783346;80;21394;-61
2020/12/09 11:10:56;;;;;;;49.40;32.85;;;;;;;7.48;49.32;94317.52;1783818;80;21574;-66
2020/12/09 11:13:33;;;;;;;51.55;34.03;;;;;;;7.25;49.96;94312.36;1783192;80;22317;-63
2020/12/09 11:16:03;;;;;;;60.17;36.13;;;;;;;7.23;50.26;94311.25;1783645;80;21142;-61
2020/12/09 11:18:32;;;;;;;67.67;44.20;;;;;;;7.52;50.17;94303.73;1783711;80;21218;-60
2020/12/09 11:21:05;;;;;;;51.30;33.40;;;;;;;7.98;48.87;94301.06;1783168;80;21250;-59
2020/12/09 11:23:34;;;;;;;61.75;32.53;;;;;;;8.34;48.47;94305.56;1783369;80;21202;-60
2020/12/09 11:26:08;;;;;;;71.60;35.48;;;;;;;8.56;47.61;94299.50;1783489;80;21202;-59
2020/12/09 11:28:39;;;;;;;56.60;37.45;;;;;;;8.67;47.08;94306.77;1780935;80;21154;-63
2020/12/09 11:31:13;;;;;;;57.90;37.45;;;;;;;8.98;47.11;94302.88;1752128;80;21155;-62
2020/12/09 11:33:52;;;;;;;59.10;37.15;;;;;;;9.52;46.52;94296.31;1753553;80;22591;-59
2020/12/09 11:36:24;;;;;;;54.60;37.83;;;;;;;10.21;45.48;94282.98;1781046;80;21182;-60